CheckWX is a tool to help pilots better visualize weather data.  It is not intended as a substitute for an official pre-flight weather briefing.

21:03:36 UTC

EDDN METAR
Nuremberg Airport
Nuremberg, Germany
Current

14 mins ago

EDDN 232050Z 10004KT CAVOK 00/M10 Q1039 NOSIG
Observed
Feb-23 @ 20:50 UTC
Wind
  • 100° at 4 KTS
Visibility
10,000+ meters
Flight Rules
VFR
Cloud Levels
  • Clear skies
Temperature
C / 32°F
Dewpoint
-10°C / 14°F
Humidity
47%
Altimeter
30.68" Hg
Pressure
1038.91 hPa
Previous

44 mins ago

EDDN 232020Z 09003KT CAVOK 00/M10 Q1039 NOSIG
Observed
Feb-23 @ 20:20 UTC
Wind
  • 090° at 3 KTS
Visibility
10,000+ meters
Flight Rules
VFR
Cloud Levels
  • Clear skies
Temperature
C / 32°F
Dewpoint
-10°C / 14°F
Humidity
47%
Altimeter
30.68" Hg
Pressure
1038.91 hPa
Previous

1 hour ago

EDDN 231950Z 09007KT CAVOK 01/M10 Q1039 NOSIG
Observed
Feb-23 @ 19:50 UTC
Wind
  • 090° at 7 KTS
Visibility
10,000+ meters
Flight Rules
VFR
Cloud Levels
  • Clear skies
Temperature
C / 34°F
Dewpoint
-10°C / 14°F
Humidity
44%
Altimeter
30.68" Hg
Pressure
1038.91 hPa